Peoria, IL (61603)

02:54 AM CDT del 19 Aprile 2015 (GMT -0500)
DracoPhyre PWS | | Change Station
CLOSE
Current Station
Stazione meteo personale
Location: Peoria, IL
Altitudine: 640 ft
Stazioni meteo nelle vicinanze

Alt. 640 ft 40.72 °N, 89.59 °W | Updated 5 seconds ago

Molto nuvoloso
Molto nuvoloso
55.2 °F
Sembra 55.2 °F
N
0.0
Vento Variabile Vento da SE
Gusts 2.2 mph

Oggi
Massima -- | Minima -- °F
--% Possibilità di precip.
Ieri
Massima -- | Minima -- °F
Precip. -- in
6:13 AM 7:41 PM
Luna nuova, 0% visible
Pressione 29.85 in
Visibilità 10.0 miglia
Nuvole Molto nuvoloso 7500 ft
Punto di rugiada 46 °F
Umidità 70%
Piovosità 0.00 in
Spessore del manto nevoso Non disponibile.
Raggi UV 0 fuori da 12
Polline 10.90 fuori da 12
Qualità dell'aria Non disponibile.
Flu Activity Regional
METAR KPIA 190654Z 08011KT 10SM BKN075 14/06 A2985 RMK AO2 SLP106 T01440061

More Conditions Fewer Conditions

Pressione 29.85 in
Visibilità 10.0 miglia
Nuvole Molto nuvoloso 7500 ft
Punto di rugiada 46 °F
Umidità 70%
Piovosità 0.00 in
Spessore del manto nevoso Non disponibile.
Raggi UV 0 fuori da 12
Polline 10.90 fuori da 12
Qualità dell'aria Non disponibile.
Flu Activity Regional
METAR KPIA 190654Z 08011KT 10SM BKN075 14/06 A2985 RMK AO2 SLP106 T01440061

More Conditions Fewer Conditions

10-Day Weather Forecast

Almanac

Astronomia

Apr. 19, 2015 Alba Tramonto
Ora attuale
Crepuscolo civile
Crepuscolo nautico
Crepuscolo astronomico
Luna
Estensione della luce visibile
Lunghezza del giorno
Tomorrow will be .
, % of the Moon is Illuminated

Gli estremi di oggi

State Highs State Lows

Community

WunderPhotos

Upload Photos

1,814,723 foto caricate!

WunderBlogs® & News

Nearby

Qualità dell'aria

  Qualità dell'aria Indice AQ Inquinante
Not available.

Profondità neve

Stazione Profondità Altitudine

Attività sismica

Città  Distanza Mag. Data & Ora
Minimo Magnitudo Mostrato è 2.5.

Temperature delle acque costiere

Località Temperatura

Stations

Stazioni meteo nelle vicinanze

Ubicazione della stazione Temp. Raffreddamento del vento Punto di rugiada Umidità Vento Precip. Alt. Aggiornato Tipo